Weather forecast for Monmouth Beach this week

Current weather in Monmouth Beach

Overcast

Weather

Overcast
Cloud cover 92%

Temperature

62°F
Minimum 59°F
Maximum 63°F

Wind

21 mph
Wind gust 36 mph

Humidity

89%
Dew point 59°F
Temp Feels Precip Humidity
00:00am Patchy rain possiblePatchy rain possible 60°F 60°F 0.1 mm 82%
03:00am OvercastOvercast 60°F 59°F 0 mm 85%
06:00am OvercastOvercast 62°F 60°F 0 mm 86%
09:00am Patchy rain possiblePatchy rain possible 60°F 60°F 0.1 mm 89%
12:00pm Patchy rain possiblePatchy rain possible 61°F 61°F 0.1 mm 89%
15:00pm OvercastOvercast 62°F 62°F 0 mm 88%
18:00pm OvercastOvercast 62°F 62°F 0 mm 89%
21:00pm Light rainLight rain 63°F 63°F 1.5 mm 94%
Temp Feels Precip Humidity
00:00am Patchy light rain Patchy light rain 60°F 60°F 0.9 mm 68%
03:00am Clear Clear 59°F 56°F 0 mm 67%
06:00am Clear Clear 56°F 52°F 0 mm 65%
09:00am Sunny Sunny 58°F 54°F 0 mm 51%
12:00pm Sunny Sunny 60°F 60°F 0 mm 48%
15:00pm Sunny Sunny 60°F 60°F 0 mm 47%
18:00pm Sunny Sunny 59°F 56°F 0 mm 45%
21:00pm Clear Clear 57°F 54°F 0 mm 48%
Temp Feels Precip Humidity
00:00am Clear Clear 56°F 53°F 0 mm 48%
03:00am Clear Clear 56°F 51°F 0 mm 49%
06:00am Partly cloudy Partly cloudy 60°F 50°F 0 mm 53%
09:00am Sunny Sunny 56°F 55°F 0 mm 46%
12:00pm Sunny Sunny 61°F 61°F 0 mm 43%
15:00pm Partly cloudy Partly cloudy 61°F 61°F 0 mm 57%
18:00pm Partly cloudy Partly cloudy 60°F 60°F 0 mm 59%
21:00pm Clear Clear 58°F 56°F 0 mm 60%
Temp Feels Precip Humidity
00:00am Clear Clear 58°F 55°F 0 mm 61%
03:00am Partly cloudy Partly cloudy 61°F 55°F 0 mm 64%
06:00am Overcast Overcast 62°F 56°F 0 mm 67%
09:00am Partly cloudy Partly cloudy 61°F 61°F 0 mm 66%
12:00pm Partly cloudy Partly cloudy 63°F 63°F 0 mm 73%
15:00pm Cloudy Cloudy 63°F 63°F 0 mm 77%
18:00pm Overcast Overcast 62°F 62°F 0 mm 88%
21:00pm Moderate rain Moderate rain 60°F 60°F 4.7 mm 91%
Temp Feels Precip Humidity
00:00am Overcast Overcast 58°F 56°F 0 mm 91%
03:00am Moderate rain Moderate rain 51°F 52°F 6.9 mm 86%
06:00am Overcast Overcast 54°F 47°F 0 mm 81%
09:00am Light drizzle Light drizzle 51°F 46°F 0.6 mm 73%
12:00pm Partly cloudy Partly cloudy 51°F 47°F 0 mm 65%
15:00pm Sunny Sunny 55°F 52°F 0 mm 48%
18:00pm Sunny Sunny 54°F 50°F 0 mm 46%
21:00pm Clear Clear 52°F 48°F 0 mm 50%
Temp Feels Precip Humidity
00:00am Clear Clear 52°F 48°F 0 mm 51%
03:00am Clear Clear 52°F 47°F 0 mm 51%
06:00am Clear Clear 55°F 48°F 0 mm 54%
09:00am Sunny Sunny 52°F 51°F 0 mm 52%
12:00pm Sunny Sunny 53°F 51°F 0 mm 54%
15:00pm Sunny Sunny 55°F 52°F 0 mm 59%
18:00pm Clear Clear 55°F 52°F 0 mm 62%
21:00pm Clear Clear 54°F 50°F 0 mm 67%
Temp Feels Precip Humidity
00:00am Clear Clear 53°F 49°F 0 mm 69%
03:00am Clear Clear 54°F 48°F 0 mm 70%
06:00am Clear Clear 58°F 47°F 0 mm 66%
09:00am Sunny Sunny 54°F 52°F 0 mm 56%
12:00pm Sunny Sunny 59°F 59°F 0 mm 49%
15:00pm Sunny Sunny 58°F 59°F 0 mm 55%
18:00pm Clear Clear 58°F 58°F 0 mm 58%
21:00pm Clear Clear 58°F 57°F 0 mm 60%

Save your favorite locations, unlock more tidal information, less advertising and more...

Sign in to Tideschart with your Facebook account in one easy click (it's FREE!)